sensor_id;sensor_type;location;lat;lon;timestamp;P1;durP1;ratioP1;P2;durP2;ratioP2
24557;SDS011;12726;49.148;8.582;2022-09-09T00:02:37;3.60;;;1.40;;
24557;SDS011;12726;49.148;8.582;2022-09-09T00:05:26;1.13;;;0.90;;
24557;SDS011;12726;49.148;8.582;2022-09-09T00:08:18;2.72;;;1.10;;
24557;SDS011;12726;49.148;8.582;2022-09-09T00:11:07;2.53;;;1.48;;
24557;SDS011;12726;49.148;8.582;2022-09-09T00:13:57;7.22;;;1.25;;
24557;SDS011;12726;49.148;8.582;2022-09-09T00:16:50;8.05;;;1.60;;
24557;SDS011;12726;49.148;8.582;2022-09-09T00:19:43;13.90;;;2.80;;
24557;SDS011;12726;49.148;8.582;2022-09-09T00:22:34;4.05;;;1.42;;
24557;SDS011;12726;49.148;8.582;2022-09-09T00:25:24;6.22;;;1.25;;
24557;SDS011;12726;49.148;8.582;2022-09-09T00:28:17;1.95;;;1.40;;
24557;SDS011;12726;49.148;8.582;2022-09-09T00:31:08;4.25;;;1.20;;
24557;SDS011;12726;49.148;8.582;2022-09-09T00:34:00;2.17;;;1.15;;
24557;SDS011;12726;49.148;8.582;2022-09-09T00:36:52;7.07;;;1.15;;
24557;SDS011;12726;49.148;8.582;2022-09-09T00:39:39;5.20;;;1.30;;
24557;SDS011;12726;49.148;8.582;2022-09-09T00:42:31;6.68;;;1.27;;
24557;SDS011;12726;49.148;8.582;2022-09-09T00:45:29;2.72;;;1.38;;
24557;SDS011;12726;49.148;8.582;2022-09-09T00:48:26;2.80;;;1.40;;
24557;SDS011;12726;49.148;8.582;2022-09-09T00:51:23;3.88;;;1.42;;
24557;SDS011;12726;49.148;8.582;2022-09-09T00:54:26;6.80;;;1.37;;
24557;SDS011;12726;49.148;8.582;2022-09-09T00:57:28;6.22;;;1.55;;
24557;SDS011;12726;49.148;8.582;2022-09-09T01:00:22;4.47;;;1.48;;
24557;SDS011;12726;49.148;8.582;2022-09-09T01:03:19;4.15;;;1.33;;
24557;SDS011;12726;49.148;8.582;2022-09-09T01:06:13;2.63;;;1.15;;
24557;SDS011;12726;49.148;8.582;2022-09-09T01:09:07;3.80;;;1.33;;
24557;SDS011;12726;49.148;8.582;2022-09-09T01:12:01;2.28;;;1.13;;
24557;SDS011;12726;49.148;8.582;2022-09-09T01:14:56;4.82;;;1.77;;
24557;SDS011;12726;49.148;8.582;2022-09-09T01:20:39;2.90;;;1.40;;
24557;SDS011;12726;49.148;8.582;2022-09-09T01:23:36;3.80;;;1.30;;
24557;SDS011;12726;49.148;8.582;2022-09-09T01:26:30;4.03;;;1.08;;
24557;SDS011;12726;49.148;8.582;2022-09-09T01:29:19;3.90;;;1.80;;
24557;SDS011;12726;49.148;8.582;2022-09-09T01:35:28;3.58;;;2.05;;
24557;SDS011;12726;49.148;8.582;2022-09-09T01:38:21;4.13;;;1.10;;
24557;SDS011;12726;49.148;8.582;2022-09-09T01:41:08;4.25;;;1.35;;
24557;SDS011;12726;49.148;8.582;2022-09-09T01:43:55;6.30;;;1.30;;
24557;SDS011;12726;49.148;8.582;2022-09-09T01:46:41;5.63;;;1.50;;
24557;SDS011;12726;49.148;8.582;2022-09-09T01:49:27;4.85;;;1.20;;
24557;SDS011;12726;49.148;8.582;2022-09-09T01:52:12;5.25;;;1.10;;
24557;SDS011;12726;49.148;8.582;2022-09-09T01:54:58;6.45;;;1.17;;
24557;SDS011;12726;49.148;8.582;2022-09-09T01:57:45;2.78;;;1.08;;
24557;SDS011;12726;49.148;8.582;2022-09-09T02:00:39;3.30;;;0.90;;
24557;SDS011;12726;49.148;8.582;2022-09-09T02:03:29;1.93;;;0.87;;
24557;SDS011;12726;49.148;8.582;2022-09-09T02:06:20;2.38;;;0.70;;
24557;SDS011;12726;49.148;8.582;2022-09-09T02:09:12;4.97;;;1.05;;
24557;SDS011;12726;49.148;8.582;2022-09-09T02:12:01;4.18;;;0.90;;
24557;SDS011;12726;49.148;8.582;2022-09-09T02:14:52;3.17;;;1.10;;
24557;SDS011;12726;49.148;8.582;2022-09-09T02:17:43;6.65;;;1.00;;
24557;SDS011;12726;49.148;8.582;2022-09-09T02:20:33;5.60;;;1.00;;
24557;SDS011;12726;49.148;8.582;2022-09-09T02:23:22;2.75;;;0.93;;
24557;SDS011;12726;49.148;8.582;2022-09-09T02:26:08;2.58;;;0.75;;
24557;SDS011;12726;49.148;8.582;2022-09-09T02:28:57;3.80;;;0.70;;
24557;SDS011;12726;49.148;8.582;2022-09-09T02:31:46;4.38;;;1.05;;
24557;SDS011;12726;49.148;8.582;2022-09-09T02:34:36;3.88;;;0.75;;
24557;SDS011;12726;49.148;8.582;2022-09-09T02:37:27;4.25;;;0.90;;
24557;SDS011;12726;49.148;8.582;2022-09-09T02:40:17;2.40;;;1.00;;
24557;SDS011;12726;49.148;8.582;2022-09-09T02:43:02;4.13;;;0.80;;
24557;SDS011;12726;49.148;8.582;2022-09-09T02:45:49;3.22;;;0.75;;
24557;SDS011;12726;49.148;8.582;2022-09-09T02:48:43;4.22;;;0.88;;
24557;SDS011;12726;49.148;8.582;2022-09-09T02:51:39;2.80;;;0.80;;
24557;SDS011;12726;49.148;8.582;2022-09-09T02:54:30;6.32;;;0.98;;
24557;SDS011;12726;49.148;8.582;2022-09-09T02:57:17;1.27;;;0.50;;
24557;SDS011;12726;49.148;8.582;2022-09-09T03:00:06;4.97;;;0.85;;
24557;SDS011;12726;49.148;8.582;2022-09-09T03:02:53;2.53;;;1.00;;
24557;SDS011;12726;49.148;8.582;2022-09-09T03:05:39;2.70;;;0.60;;
24557;SDS011;12726;49.148;8.582;2022-09-09T03:08:26;8.38;;;0.90;;
24557;SDS011;12726;49.148;8.582;2022-09-09T03:11:12;2.20;;;0.70;;
24557;SDS011;12726;49.148;8.582;2022-09-09T03:13:57;2.70;;;0.80;;
24557;SDS011;12726;49.148;8.582;2022-09-09T03:16:43;2.75;;;0.70;;
24557;SDS011;12726;49.148;8.582;2022-09-09T03:19:28;2.15;;;1.10;;
24557;SDS011;12726;49.148;8.582;2022-09-09T03:22:13;3.10;;;0.77;;
24557;SDS011;12726;49.148;8.582;2022-09-09T03:25:00;2.50;;;0.70;;
24557;SDS011;12726;49.148;8.582;2022-09-09T03:27:46;3.75;;;0.65;;
24557;SDS011;12726;49.148;8.582;2022-09-09T03:30:32;3.00;;;0.52;;
24557;SDS011;12726;49.148;8.582;2022-09-09T03:33:17;4.55;;;0.50;;
24557;SDS011;12726;49.148;8.582;2022-09-09T03:36:03;1.33;;;0.60;;
24557;SDS011;12726;49.148;8.582;2022-09-09T03:38:49;1.17;;;0.70;;
24557;SDS011;12726;49.148;8.582;2022-09-09T03:41:36;3.47;;;0.68;;
24557;SDS011;12726;49.148;8.582;2022-09-09T03:44:21;2.33;;;0.73;;
24557;SDS011;12726;49.148;8.582;2022-09-09T03:47:07;3.55;;;0.90;;
24557;SDS011;12726;49.148;8.582;2022-09-09T03:49:52;1.70;;;0.70;;
24557;SDS011;12726;49.148;8.582;2022-09-09T03:52:39;3.72;;;0.80;;
24557;SDS011;12726;49.148;8.582;2022-09-09T03:55:25;2.53;;;0.55;;
24557;SDS011;12726;49.148;8.582;2022-09-09T03:58:13;2.58;;;0.70;;
24557;SDS011;12726;49.148;8.582;2022-09-09T04:00:59;2.25;;;0.70;;
24557;SDS011;12726;49.148;8.582;2022-09-09T04:03:45;2.03;;;0.40;;
24557;SDS011;12726;49.148;8.582;2022-09-09T04:06:31;3.88;;;0.50;;
24557;SDS011;12726;49.148;8.582;2022-09-09T04:09:16;2.17;;;0.68;;
24557;SDS011;12726;49.148;8.582;2022-09-09T04:12:02;0.77;;;0.40;;
24557;SDS011;12726;49.148;8.582;2022-09-09T04:14:49;1.05;;;0.60;;
24557;SDS011;12726;49.148;8.582;2022-09-09T04:17:34;2.35;;;0.68;;
24557;SDS011;12726;49.148;8.582;2022-09-09T04:20:20;2.10;;;0.40;;
24557;SDS011;12726;49.148;8.582;2022-09-09T04:23:05;1.10;;;0.70;;
24557;SDS011;12726;49.148;8.582;2022-09-09T04:25:51;2.72;;;0.70;;
24557;SDS011;12726;49.148;8.582;2022-09-09T04:28:39;4.65;;;0.70;;
24557;SDS011;12726;49.148;8.582;2022-09-09T04:31:26;0.80;;;0.50;;
24557;SDS011;12726;49.148;8.582;2022-09-09T04:34:11;0.88;;;0.50;;
24557;SDS011;12726;49.148;8.582;2022-09-09T04:36:56;1.15;;;0.50;;
24557;SDS011;12726;49.148;8.582;2022-09-09T04:39:44;3.85;;;0.60;;
24557;SDS011;12726;49.148;8.582;2022-09-09T04:42:34;1.05;;;0.70;;
24557;SDS011;12726;49.148;8.582;2022-09-09T04:45:20;2.50;;;0.68;;
24557;SDS011;12726;49.148;8.582;2022-09-09T04:48:08;3.60;;;0.77;;
24557;SDS011;12726;49.148;8.582;2022-09-09T04:50:55;1.08;;;0.75;;
24557;SDS011;12726;49.148;8.582;2022-09-09T04:53:41;1.73;;;0.82;;
24557;SDS011;12726;49.148;8.582;2022-09-09T04:56:34;1.30;;;0.50;;
24557;SDS011;12726;49.148;8.582;2022-09-09T04:59:20;2.00;;;0.60;;
24557;SDS011;12726;49.148;8.582;2022-09-09T05:02:05;2.70;;;0.50;;
24557;SDS011;12726;49.148;8.582;2022-09-09T05:04:53;1.38;;;0.63;;
24557;SDS011;12726;49.148;8.582;2022-09-09T05:07:39;1.40;;;0.43;;
24557;SDS011;12726;49.148;8.582;2022-09-09T05:10:25;2.42;;;0.50;;
24557;SDS011;12726;49.148;8.582;2022-09-09T05:13:10;2.80;;;0.60;;
24557;SDS011;12726;49.148;8.582;2022-09-09T05:15:55;1.85;;;0.40;;
24557;SDS011;12726;49.148;8.582;2022-09-09T05:18:41;1.55;;;0.50;;
24557;SDS011;12726;49.148;8.582;2022-09-09T05:21:28;2.63;;;0.57;;
24557;SDS011;12726;49.148;8.582;2022-09-09T05:24:15;1.92;;;0.75;;
24557;SDS011;12726;49.148;8.582;2022-09-09T05:27:00;2.58;;;1.00;;
24557;SDS011;12726;49.148;8.582;2022-09-09T05:29:46;3.67;;;0.60;;
24557;SDS011;12726;49.148;8.582;2022-09-09T05:32:32;3.15;;;0.60;;
24557;SDS011;12726;49.148;8.582;2022-09-09T05:35:18;3.88;;;1.08;;
24557;SDS011;12726;49.148;8.582;2022-09-09T05:38:05;7.80;;;0.90;;
24557;SDS011;12726;49.148;8.582;2022-09-09T05:40:51;3.38;;;1.10;;
24557;SDS011;12726;49.148;8.582;2022-09-09T05:43:37;4.40;;;1.20;;
24557;SDS011;12726;49.148;8.582;2022-09-09T05:46:23;2.95;;;0.93;;
24557;SDS011;12726;49.148;8.582;2022-09-09T05:49:09;4.50;;;0.90;;
24557;SDS011;12726;49.148;8.582;2022-09-09T05:51:55;5.90;;;0.60;;
24557;SDS011;12726;49.148;8.582;2022-09-09T05:54:42;1.90;;;0.80;;
24557;SDS011;12726;49.148;8.582;2022-09-09T05:57:28;3.40;;;0.80;;
24557;SDS011;12726;49.148;8.582;2022-09-09T06:00:13;2.00;;;0.50;;
24557;SDS011;12726;49.148;8.582;2022-09-09T06:03:00;5.97;;;0.70;;
24557;SDS011;12726;49.148;8.582;2022-09-09T06:05:45;3.90;;;0.50;;
24557;SDS011;12726;49.148;8.582;2022-09-09T06:08:31;2.85;;;0.70;;
24557;SDS011;12726;49.148;8.582;2022-09-09T06:11:18;3.72;;;1.23;;
24557;SDS011;12726;49.148;8.582;2022-09-09T06:14:05;5.15;;;0.80;;
24557;SDS011;12726;49.148;8.582;2022-09-09T06:16:51;4.80;;;0.98;;
24557;SDS011;12726;49.148;8.582;2022-09-09T06:19:37;2.53;;;1.00;;
24557;SDS011;12726;49.148;8.582;2022-09-09T06:22:22;4.53;;;0.90;;
24557;SDS011;12726;49.148;8.582;2022-09-09T06:25:08;2.95;;;0.70;;
24557;SDS011;12726;49.148;8.582;2022-09-09T06:27:55;2.92;;;0.60;;
24557;SDS011;12726;49.148;8.582;2022-09-09T06:30:41;3.92;;;0.90;;
24557;SDS011;12726;49.148;8.582;2022-09-09T06:33:26;4.63;;;0.98;;
24557;SDS011;12726;49.148;8.582;2022-09-09T06:36:16;1.70;;;0.40;;
24557;SDS011;12726;49.148;8.582;2022-09-09T06:39:03;1.52;;;0.50;;
24557;SDS011;12726;49.148;8.582;2022-09-09T06:41:49;1.55;;;0.70;;
24557;SDS011;12726;49.148;8.582;2022-09-09T06:44:38;1.08;;;0.50;;
24557;SDS011;12726;49.148;8.582;2022-09-09T06:47:23;3.15;;;0.80;;
24557;SDS011;12726;49.148;8.582;2022-09-09T06:50:11;5.18;;;0.60;;
24557;SDS011;12726;49.148;8.582;2022-09-09T06:52:56;3.00;;;0.52;;
24557;SDS011;12726;49.148;8.582;2022-09-09T06:55:42;1.75;;;0.50;;
24557;SDS011;12726;49.148;8.582;2022-09-09T06:58:28;6.90;;;0.73;;
24557;SDS011;12726;49.148;8.582;2022-09-09T07:01:16;5.60;;;0.75;;
24557;SDS011;12726;49.148;8.582;2022-09-09T07:04:03;2.33;;;0.65;;
24557;SDS011;12726;49.148;8.582;2022-09-09T07:06:51;6.78;;;0.90;;
24557;SDS011;12726;49.148;8.582;2022-09-09T07:09:37;2.80;;;0.75;;
24557;SDS011;12726;49.148;8.582;2022-09-09T07:12:23;3.50;;;0.70;;
24557;SDS011;12726;49.148;8.582;2022-09-09T07:15:09;2.85;;;0.70;;
24557;SDS011;12726;49.148;8.582;2022-09-09T07:17:56;6.65;;;0.80;;
24557;SDS011;12726;49.148;8.582;2022-09-09T07:20:52;3.38;;;0.68;;
24557;SDS011;12726;49.148;8.582;2022-09-09T07:23:38;7.07;;;0.70;;
24557;SDS011;12726;49.148;8.582;2022-09-09T07:26:24;2.40;;;0.70;;
24557;SDS011;12726;49.148;8.582;2022-09-09T07:29:11;5.35;;;0.57;;
24557;SDS011;12726;49.148;8.582;2022-09-09T07:31:57;4.60;;;0.80;;
24557;SDS011;12726;49.148;8.582;2022-09-09T07:34:45;2.17;;;0.50;;
24557;SDS011;12726;49.148;8.582;2022-09-09T07:37:30;3.08;;;1.05;;
24557;SDS011;12726;49.148;8.582;2022-09-09T07:40:15;1.73;;;0.60;;
24557;SDS011;12726;49.148;8.582;2022-09-09T07:43:01;3.10;;;0.80;;
24557;SDS011;12726;49.148;8.582;2022-09-09T07:45:46;1.25;;;0.55;;
24557;SDS011;12726;49.148;8.582;2022-09-09T07:48:34;2.80;;;0.63;;
24557;SDS011;12726;49.148;8.582;2022-09-09T07:51:22;3.78;;;0.70;;
24557;SDS011;12726;49.148;8.582;2022-09-09T07:54:10;2.72;;;0.57;;
24557;SDS011;12726;49.148;8.582;2022-09-09T07:56:57;4.68;;;0.70;;
24557;SDS011;12726;49.148;8.582;2022-09-09T07:59:42;3.47;;;0.60;;
24557;SDS011;12726;49.148;8.582;2022-09-09T08:02:28;6.53;;;0.90;;
24557;SDS011;12726;49.148;8.582;2022-09-09T08:05:14;1.45;;;0.68;;
24557;SDS011;12726;49.148;8.582;2022-09-09T08:08:01;1.70;;;0.52;;
24557;SDS011;12726;49.148;8.582;2022-09-09T08:10:48;4.30;;;1.13;;
24557;SDS011;12726;49.148;8.582;2022-09-09T08:13:34;4.60;;;0.85;;
24557;SDS011;12726;49.148;8.582;2022-09-09T08:16:20;2.75;;;0.70;;
24557;SDS011;12726;49.148;8.582;2022-09-09T08:19:07;1.80;;;0.60;;
24557;SDS011;12726;49.148;8.582;2022-09-09T08:21:54;2.53;;;0.60;;
24557;SDS011;12726;49.148;8.582;2022-09-09T08:24:40;3.25;;;0.60;;
24557;SDS011;12726;49.148;8.582;2022-09-09T08:27:26;2.72;;;1.10;;
24557;SDS011;12726;49.148;8.582;2022-09-09T08:30:11;4.85;;;1.35;;
24557;SDS011;12726;49.148;8.582;2022-09-09T08:32:57;2.80;;;0.80;;
24557;SDS011;12726;49.148;8.582;2022-09-09T08:35:49;1.70;;;0.50;;
24557;SDS011;12726;49.148;8.582;2022-09-09T08:38:36;2.85;;;0.73;;
24557;SDS011;12726;49.148;8.582;2022-09-09T08:41:30;3.60;;;0.70;;
24557;SDS011;12726;49.148;8.582;2022-09-09T08:44:27;3.97;;;0.88;;
24557;SDS011;12726;49.148;8.582;2022-09-09T08:47:24;4.90;;;0.70;;
24557;SDS011;12726;49.148;8.582;2022-09-09T08:50:19;7.10;;;1.10;;
24557;SDS011;12726;49.148;8.582;2022-09-09T08:53:10;5.30;;;1.13;;
24557;SDS011;12726;49.148;8.582;2022-09-09T08:56:01;3.92;;;0.70;;
24557;SDS011;12726;49.148;8.582;2022-09-09T08:58:55;3.15;;;0.80;;
24557;SDS011;12726;49.148;8.582;2022-09-09T09:01:43;2.05;;;0.77;;
24557;SDS011;12726;49.148;8.582;2022-09-09T09:04:38;3.72;;;0.95;;
24557;SDS011;12726;49.148;8.582;2022-09-09T09:07:37;3.03;;;0.70;;
24557;SDS011;12726;49.148;8.582;2022-09-09T09:10:35;5.40;;;1.35;;
24557;SDS011;12726;49.148;8.582;2022-09-09T09:13:32;5.50;;;0.95;;
24557;SDS011;12726;49.148;8.582;2022-09-09T09:16:27;6.72;;;0.77;;
24557;SDS011;12726;49.148;8.582;2022-09-09T09:19:19;4.53;;;0.98;;
24557;SDS011;12726;49.148;8.582;2022-09-09T09:22:10;6.15;;;0.88;;
24557;SDS011;12726;49.148;8.582;2022-09-09T09:25:02;5.47;;;0.85;;
24557;SDS011;12726;49.148;8.582;2022-09-09T09:27:57;3.60;;;1.10;;
24557;SDS011;12726;49.148;8.582;2022-09-09T09:30:46;1.40;;;0.50;;
24557;SDS011;12726;49.148;8.582;2022-09-09T09:33:41;2.05;;;0.60;;
24557;SDS011;12726;49.148;8.582;2022-09-09T09:36:37;6.88;;;1.10;;
24557;SDS011;12726;49.148;8.582;2022-09-09T09:39:26;2.38;;;0.75;;
24557;SDS011;12726;49.148;8.582;2022-09-09T09:42:15;5.47;;;1.23;;
24557;SDS011;12726;49.148;8.582;2022-09-09T09:45:07;2.60;;;0.57;;
24557;SDS011;12726;49.148;8.582;2022-09-09T09:47:57;2.72;;;0.60;;
24557;SDS011;12726;49.148;8.582;2022-09-09T09:50:49;5.00;;;0.70;;
24557;SDS011;12726;49.148;8.582;2022-09-09T09:53:36;4.83;;;0.77;;
24557;SDS011;12726;49.148;8.582;2022-09-09T09:56:26;3.28;;;0.68;;
24557;SDS011;12726;49.148;8.582;2022-09-09T09:59:20;1.77;;;0.88;;
24557;SDS011;12726;49.148;8.582;2022-09-09T10:02:19;4.78;;;0.82;;
24557;SDS011;12726;49.148;8.582;2022-09-09T10:05:12;2.50;;;0.70;;
24557;SDS011;12726;49.148;8.582;2022-09-09T10:08:04;3.00;;;0.50;;
24557;SDS011;12726;49.148;8.582;2022-09-09T10:14:04;4.25;;;1.05;;
24557;SDS011;12726;49.148;8.582;2022-09-09T10:17:05;3.15;;;0.80;;
24557;SDS011;12726;49.148;8.582;2022-09-09T10:20:10;2.50;;;0.70;;
24557;SDS011;12726;49.148;8.582;2022-09-09T10:23:13;2.60;;;0.63;;
24557;SDS011;12726;49.148;8.582;2022-09-09T10:26:13;4.85;;;1.00;;
24557;SDS011;12726;49.148;8.582;2022-09-09T10:29:16;3.65;;;0.68;;
24557;SDS011;12726;49.148;8.582;2022-09-09T10:32:19;3.20;;;0.93;;
24557;SDS011;12726;49.148;8.582;2022-09-09T10:35:22;3.08;;;0.60;;
24557;SDS011;12726;49.148;8.582;2022-09-09T10:38:14;3.92;;;0.75;;
24557;SDS011;12726;49.148;8.582;2022-09-09T10:41:09;1.85;;;0.52;;
24557;SDS011;12726;49.148;8.582;2022-09-09T10:44:03;3.70;;;0.73;;
24557;SDS011;12726;49.148;8.582;2022-09-09T10:47:04;2.55;;;0.60;;
24557;SDS011;12726;49.148;8.582;2022-09-09T10:52:58;2.65;;;0.80;;
24557;SDS011;12726;49.148;8.582;2022-09-09T10:55:50;5.85;;;0.80;;
24557;SDS011;12726;49.148;8.582;2022-09-09T10:58:40;4.85;;;1.00;;
24557;SDS011;12726;49.148;8.582;2022-09-09T11:01:30;2.72;;;0.70;;
24557;SDS011;12726;49.148;8.582;2022-09-09T11:04:22;2.95;;;1.00;;
24557;SDS011;12726;49.148;8.582;2022-09-09T11:07:10;3.47;;;0.70;;
24557;SDS011;12726;49.148;8.582;2022-09-09T11:10:05;3.40;;;0.80;;
24557;SDS011;12726;49.148;8.582;2022-09-09T11:13:02;3.22;;;0.73;;
24557;SDS011;12726;49.148;8.582;2022-09-09T11:15:52;3.95;;;0.45;;
24557;SDS011;12726;49.148;8.582;2022-09-09T11:18:42;4.80;;;0.65;;
24557;SDS011;12726;49.148;8.582;2022-09-09T11:21:31;3.72;;;0.50;;
24557;SDS011;12726;49.148;8.582;2022-09-09T11:24:23;2.35;;;0.50;;
24557;SDS011;12726;49.148;8.582;2022-09-09T11:27:14;2.33;;;0.50;;
24557;SDS011;12726;49.148;8.582;2022-09-09T11:30:20;3.78;;;0.80;;
24557;SDS011;12726;49.148;8.582;2022-09-09T11:36:39;2.00;;;0.70;;
24557;SDS011;12726;49.148;8.582;2022-09-09T11:39:44;2.28;;;0.63;;
24557;SDS011;12726;49.148;8.582;2022-09-09T11:42:45;3.75;;;0.68;;
24557;SDS011;12726;49.148;8.582;2022-09-09T11:45:35;2.55;;;0.45;;
24557;SDS011;12726;49.148;8.582;2022-09-09T11:48:22;4.35;;;0.60;;
24557;SDS011;12726;49.148;8.582;2022-09-09T11:51:11;1.98;;;0.55;;
24557;SDS011;12726;49.148;8.582;2022-09-09T11:53:58;1.98;;;0.50;;
24557;SDS011;12726;49.148;8.582;2022-09-09T11:56:46;4.90;;;0.60;;
24557;SDS011;12726;49.148;8.582;2022-09-09T11:59:32;4.35;;;0.77;;
24557;SDS011;12726;49.148;8.582;2022-09-09T12:02:22;1.60;;;0.60;;
24557;SDS011;12726;49.148;8.582;2022-09-09T12:05:10;2.78;;;0.98;;
24557;SDS011;12726;49.148;8.582;2022-09-09T12:07:59;4.50;;;0.80;;
24557;SDS011;12726;49.148;8.582;2022-09-09T12:10:52;3.40;;;0.77;;
24557;SDS011;12726;49.148;8.582;2022-09-09T12:13:39;5.53;;;0.73;;
24557;SDS011;12726;49.148;8.582;2022-09-09T12:16:31;3.78;;;0.70;;
24557;SDS011;12726;49.148;8.582;2022-09-09T12:19:21;2.72;;;0.80;;
24557;SDS011;12726;49.148;8.582;2022-09-09T12:22:07;2.45;;;0.60;;
24557;SDS011;12726;49.148;8.582;2022-09-09T12:25:03;4.97;;;0.73;;
24557;SDS011;12726;49.148;8.582;2022-09-09T12:28:03;3.03;;;0.60;;
24557;SDS011;12726;49.148;8.582;2022-09-09T12:30:56;5.43;;;0.77;;
24557;SDS011;12726;49.148;8.582;2022-09-09T12:33:45;3.53;;;0.70;;
24557;SDS011;12726;49.148;8.582;2022-09-09T12:36:33;5.28;;;0.70;;
24557;SDS011;12726;49.148;8.582;2022-09-09T12:39:26;1.25;;;0.47;;
24557;SDS011;12726;49.148;8.582;2022-09-09T12:42:18;3.75;;;0.60;;
24557;SDS011;12726;49.148;8.582;2022-09-09T12:45:14;3.33;;;0.77;;
24557;SDS011;12726;49.148;8.582;2022-09-09T12:48:03;3.83;;;0.90;;
24557;SDS011;12726;49.148;8.582;2022-09-09T12:50:51;2.75;;;0.60;;
24557;SDS011;12726;49.148;8.582;2022-09-09T12:53:39;3.13;;;0.80;;
24557;SDS011;12726;49.148;8.582;2022-09-09T12:56:25;4.30;;;0.98;;
24557;SDS011;12726;49.148;8.582;2022-09-09T12:59:17;3.70;;;1.13;;
24557;SDS011;12726;49.148;8.582;2022-09-09T13:02:16;3.80;;;0.68;;
24557;SDS011;12726;49.148;8.582;2022-09-09T13:05:12;3.25;;;0.82;;
24557;SDS011;12726;49.148;8.582;2022-09-09T13:08:01;3.80;;;1.00;;
24557;SDS011;12726;49.148;8.582;2022-09-09T13:10:48;5.93;;;0.90;;
24557;SDS011;12726;49.148;8.582;2022-09-09T13:13:38;6.60;;;1.00;;
24557;SDS011;12726;49.148;8.582;2022-09-09T13:16:26;3.28;;;1.13;;
24557;SDS011;12726;49.148;8.582;2022-09-09T13:19:15;3.90;;;0.77;;
24557;SDS011;12726;49.148;8.582;2022-09-09T13:22:10;3.30;;;0.60;;
24557;SDS011;12726;49.148;8.582;2022-09-09T13:25:01;0.82;;;0.20;;
24557;SDS011;12726;49.148;8.582;2022-09-09T13:27:54;3.42;;;0.70;;
24557;SDS011;12726;49.148;8.582;2022-09-09T13:30:41;2.28;;;0.73;;
24557;SDS011;12726;49.148;8.582;2022-09-09T13:33:32;3.40;;;0.45;;
24557;SDS011;12726;49.148;8.582;2022-09-09T13:36:27;3.90;;;0.60;;
24557;SDS011;12726;49.148;8.582;2022-09-09T13:39:15;2.95;;;0.52;;
24557;SDS011;12726;49.148;8.582;2022-09-09T13:42:03;4.53;;;0.82;;
24557;SDS011;12726;49.148;8.582;2022-09-09T13:44:52;1.98;;;0.45;;
24557;SDS011;12726;49.148;8.582;2022-09-09T13:47:39;2.17;;;0.50;;
24557;SDS011;12726;49.148;8.582;2022-09-09T13:50:26;1.58;;;0.50;;
24557;SDS011;12726;49.148;8.582;2022-09-09T13:53:13;2.22;;;0.30;;
24557;SDS011;12726;49.148;8.582;2022-09-09T13:55:59;1.38;;;0.38;;
24557;SDS011;12726;49.148;8.582;2022-09-09T13:58:44;1.70;;;0.30;;
24557;SDS011;12726;49.148;8.582;2022-09-09T14:01:31;3.35;;;0.57;;
24557;SDS011;12726;49.148;8.582;2022-09-09T14:04:18;6.43;;;0.70;;
24557;SDS011;12726;49.148;8.582;2022-09-09T14:07:04;1.70;;;0.95;;
24557;SDS011;12726;49.148;8.582;2022-09-09T14:09:50;1.83;;;0.55;;
24557;SDS011;12726;49.148;8.582;2022-09-09T14:12:36;1.48;;;0.50;;
24557;SDS011;12726;49.148;8.582;2022-09-09T14:15:21;1.10;;;0.50;;
24557;SDS011;12726;49.148;8.582;2022-09-09T14:18:09;4.28;;;0.70;;
24557;SDS011;12726;49.148;8.582;2022-09-09T14:20:57;2.72;;;0.63;;
24557;SDS011;12726;49.148;8.582;2022-09-09T14:23:43;7.47;;;0.93;;
24557;SDS011;12726;49.148;8.582;2022-09-09T14:26:28;3.28;;;0.73;;
24557;SDS011;12726;49.148;8.582;2022-09-09T14:29:13;4.07;;;0.60;;
24557;SDS011;12726;49.148;8.582;2022-09-09T14:31:59;2.35;;;0.60;;
24557;SDS011;12726;49.148;8.582;2022-09-09T14:34:46;4.38;;;0.80;;
24557;SDS011;12726;49.148;8.582;2022-09-09T14:37:33;3.30;;;0.85;;
24557;SDS011;12726;49.148;8.582;2022-09-09T14:40:19;2.42;;;0.90;;
24557;SDS011;12726;49.148;8.582;2022-09-09T14:43:04;2.45;;;0.80;;
24557;SDS011;12726;49.148;8.582;2022-09-09T14:45:51;1.75;;;0.70;;
24557;SDS011;12726;49.148;8.582;2022-09-09T14:48:36;1.90;;;0.82;;
24557;SDS011;12726;49.148;8.582;2022-09-09T14:51:25;1.00;;;0.30;;
24557;SDS011;12726;49.148;8.582;2022-09-09T14:54:12;1.52;;;0.35;;
24557;SDS011;12726;49.148;8.582;2022-09-09T14:56:59;1.10;;;0.43;;
24557;SDS011;12726;49.148;8.582;2022-09-09T14:59:44;1.58;;;0.80;;
24557;SDS011;12726;49.148;8.582;2022-09-09T15:02:29;6.30;;;0.77;;
24557;SDS011;12726;49.148;8.582;2022-09-09T15:05:15;4.53;;;0.70;;
24557;SDS011;12726;49.148;8.582;2022-09-09T15:08:02;3.33;;;0.55;;
24557;SDS011;12726;49.148;8.582;2022-09-09T15:10:47;2.63;;;0.85;;
24557;SDS011;12726;49.148;8.582;2022-09-09T15:13:34;1.92;;;0.63;;
24557;SDS011;12726;49.148;8.582;2022-09-09T15:16:21;2.40;;;0.60;;
24557;SDS011;12726;49.148;8.582;2022-09-09T15:19:08;2.42;;;0.50;;
24557;SDS011;12726;49.148;8.582;2022-09-09T15:21:54;3.53;;;0.73;;
24557;SDS011;12726;49.148;8.582;2022-09-09T15:24:41;6.40;;;1.00;;
24557;SDS011;12726;49.148;8.582;2022-09-09T15:27:26;4.90;;;0.77;;
24557;SDS011;12726;49.148;8.582;2022-09-09T15:30:15;5.68;;;0.80;;
24557;SDS011;12726;49.148;8.582;2022-09-09T15:33:00;4.20;;;1.15;;
24557;SDS011;12726;49.148;8.582;2022-09-09T15:35:46;4.13;;;0.60;;
24557;SDS011;12726;49.148;8.582;2022-09-09T15:38:31;1.38;;;0.60;;
24557;SDS011;12726;49.148;8.582;2022-09-09T15:41:19;2.17;;;0.75;;
24557;SDS011;12726;49.148;8.582;2022-09-09T15:44:06;2.25;;;0.40;;
24557;SDS011;12726;49.148;8.582;2022-09-09T15:46:54;2.05;;;0.70;;
24557;SDS011;12726;49.148;8.582;2022-09-09T15:49:39;2.55;;;0.70;;
24557;SDS011;12726;49.148;8.582;2022-09-09T15:52:24;3.78;;;0.60;;
24557;SDS011;12726;49.148;8.582;2022-09-09T15:55:10;3.58;;;0.55;;
24557;SDS011;12726;49.148;8.582;2022-09-09T15:57:57;3.30;;;0.75;;
24557;SDS011;12726;49.148;8.582;2022-09-09T16:00:42;2.50;;;0.63;;
24557;SDS011;12726;49.148;8.582;2022-09-09T16:03:29;1.35;;;0.77;;
24557;SDS011;12726;49.148;8.582;2022-09-09T16:06:16;4.30;;;0.60;;
24557;SDS011;12726;49.148;8.582;2022-09-09T16:09:05;3.38;;;0.57;;
24557;SDS011;12726;49.148;8.582;2022-09-09T16:11:55;2.30;;;0.90;;
24557;SDS011;12726;49.148;8.582;2022-09-09T16:14:43;2.92;;;0.60;;
24557;SDS011;12726;49.148;8.582;2022-09-09T16:17:29;2.00;;;0.60;;
24557;SDS011;12726;49.148;8.582;2022-09-09T16:20:20;2.90;;;0.60;;
24557;SDS011;12726;49.148;8.582;2022-09-09T16:23:06;1.38;;;0.40;;
24557;SDS011;12726;49.148;8.582;2022-09-09T16:25:53;1.63;;;0.57;;
24557;SDS011;12726;49.148;8.582;2022-09-09T16:28:40;3.17;;;0.70;;
24557;SDS011;12726;49.148;8.582;2022-09-09T16:31:27;3.50;;;1.08;;
24557;SDS011;12726;49.148;8.582;2022-09-09T16:34:15;2.75;;;0.70;;
24557;SDS011;12726;49.148;8.582;2022-09-09T16:37:02;2.25;;;0.80;;
24557;SDS011;12726;49.148;8.582;2022-09-09T16:39:47;2.35;;;0.57;;
24557;SDS011;12726;49.148;8.582;2022-09-09T16:42:33;4.03;;;0.80;;
24557;SDS011;12726;49.148;8.582;2022-09-09T16:45:19;1.73;;;0.50;;
24557;SDS011;12726;49.148;8.582;2022-09-09T16:48:07;1.65;;;0.65;;
24557;SDS011;12726;49.148;8.582;2022-09-09T16:50:52;2.17;;;0.85;;
24557;SDS011;12726;49.148;8.582;2022-09-09T16:53:45;3.65;;;0.80;;
24557;SDS011;12726;49.148;8.582;2022-09-09T16:56:31;6.68;;;0.80;;
24557;SDS011;12726;49.148;8.582;2022-09-09T16:59:21;5.25;;;0.70;;
24557;SDS011;12726;49.148;8.582;2022-09-09T17:02:07;3.28;;;0.70;;
24557;SDS011;12726;49.148;8.582;2022-09-09T17:04:54;2.17;;;0.65;;
24557;SDS011;12726;49.148;8.582;2022-09-09T17:07:40;1.70;;;1.00;;
24557;SDS011;12726;49.148;8.582;2022-09-09T17:10:27;4.53;;;0.77;;
24557;SDS011;12726;49.148;8.582;2022-09-09T17:13:13;4.85;;;0.90;;
24557;SDS011;12726;49.148;8.582;2022-09-09T17:15:58;2.13;;;0.63;;